Time;durP1;ratioP1;P1;durP2;ratioP2;P2;SDS_P1;SDS_P2;PMS_P1;PMS_P2;Temp;Humidity;BMP_temperature;BMP_pressure;BME280_temperature;BME280_humidity;BME280_pressure;Samples;Min_cycle;Max_cycle;Signal;HPM_P1;HPM_P2
2023/08/27 00:01:09;;;;;;;3.72;1.02;;;;;;;;;;5032562;28;20036;-55
2023/08/27 00:03:35;;;;;;;1.95;1.17;;;12.90;99.90;;;;;;5032320;28;20022;-52
2023/08/27 00:06:01;;;;;;;2.78;0.95;;;13.60;99.90;;;;;;5032470;28;20060;-52
2023/08/27 00:08:27;;;;;;;1.80;1.17;;;;;;;;;;5032170;28;20025;-48
2023/08/27 00:10:59;;;;;;;3.60;1.00;;;13.80;99.90;;;;;;5032273;28;20491;-50
2023/08/27 00:13:25;;;;;;;2.05;1.35;;;13.50;99.90;;;;;;5032143;28;20053;-57
2023/08/27 00:15:51;;;;;;;1.60;0.90;;;;;;;;;;5031918;28;20080;-56
2023/08/27 00:18:18;;;;;;;2.33;1.02;;;13.60;99.90;;;;;;5032122;28;20048;-52
2023/08/27 00:20:48;;;;;;;1.95;1.10;;;13.60;99.90;;;;;;5032044;28;20029;-48
2023/08/27 00:23:14;;;;;;;1.23;0.93;;;;;;;;;;5032155;28;20029;-47
2023/08/27 00:25:40;;;;;;;2.28;0.90;;;;;;;;;;5031968;28;20036;-54
2023/08/27 00:28:06;;;;;;;5.72;1.30;;;13.30;99.90;;;;;;5032008;28;20039;-50
2023/08/27 00:30:33;;;;;;;1.63;0.80;;;;;;;;;;5031831;28;20061;-53
2023/08/27 00:32:58;;;;;;;2.35;1.05;;;13.70;99.90;;;;;;5031886;28;20029;-55
2023/08/27 00:35:24;;;;;;;2.70;1.20;;;11.00;99.90;;;;;;5031745;28;20025;-53
2023/08/27 00:37:50;;;;;;;1.95;0.93;;;13.60;99.90;;;;;;5031612;28;20029;-51
2023/08/27 00:40:16;;;;;;;0.93;0.68;;;;;;;;;;5031834;28;20164;-54
2023/08/27 00:42:42;;;;;;;2.88;1.00;;;13.30;99.90;;;;;;5031581;28;20042;-52
2023/08/27 00:45:08;;;;;;;1.25;0.73;;;11.90;99.90;;;;;;5031586;28;20021;-52
2023/08/27 00:47:37;;;;;;;6.15;1.00;;;13.30;99.90;;;;;;5031648;28;20029;-50
2023/08/27 00:50:04;;;;;;;2.58;0.88;;;9.20;99.90;;;;;;5031673;28;20025;-52
2023/08/27 00:52:30;;;;;;;5.82;1.00;;;13.10;99.90;;;;;;5031593;28;20393;-56
2023/08/27 00:54:59;;;;;;;1.20;0.90;;;11.60;99.90;;;;;;5031480;28;20026;-57
2023/08/27 00:57:25;;;;;;;2.05;0.88;;;8.40;99.90;;;;;;5031480;28;20099;-53
2023/08/27 00:59:52;;;;;;;2.78;1.08;;;13.00;99.90;;;;;;5030784;28;20025;-54
2023/08/27 01:02:18;;;;;;;1.27;0.80;;;12.50;99.90;;;;;;5031483;28;20072;-56
2023/08/27 01:04:44;;;;;;;0.93;0.63;;;12.80;99.90;;;;;;5031363;28;20049;-56
2023/08/27 01:07:19;;;;;;;1.27;0.70;;;11.60;99.90;;;;;;5031465;28;20026;-53
2023/08/27 01:09:53;;;;;;;1.20;0.80;;;11.50;99.90;;;;;;5031261;28;20071;-49
2023/08/27 01:12:55;;;;;;;1.17;0.77;;;11.90;99.90;;;;;;5029928;28;20444;-57
2023/08/27 01:15:22;;;;;;;2.78;0.85;;;12.10;99.90;;;;;;5030783;28;20097;-56
2023/08/27 01:17:48;;;;;;;2.40;1.00;;;11.40;99.90;;;;;;5031033;28;20397;-53
2023/08/27 01:20:15;;;;;;;2.53;1.08;;;12.90;99.90;;;;;;5031168;28;20176;-51
2023/08/27 01:22:40;;;;;;;6.70;1.35;;;12.70;99.90;;;;;;5031130;28;20021;-52
2023/08/27 01:25:07;;;;;;;2.42;1.35;;;13.40;99.90;;;;;;5029612;28;20024;-50
2023/08/27 01:27:42;;;;;;;2.55;1.13;;;12.90;99.90;;;;;;5030722;28;20116;-52
2023/08/27 01:30:29;;;;;;;1.77;1.02;;;11.50;99.90;;;;;;5029504;28;20044;-50
2023/08/27 01:33:05;;;;;;;2.95;1.35;;;11.80;99.90;;;;;;5030798;28;20534;-53
2023/08/27 01:35:32;;;;;;;3.50;1.80;;;12.70;99.90;;;;;;5030857;28;20053;-48
2023/08/27 01:37:58;;;;;;;4.95;1.48;;;11.90;99.90;;;;;;5030787;28;20138;-53
2023/08/27 01:40:27;;;;;;;3.35;1.60;;;12.10;99.90;;;;;;5031093;28;20021;-52
2023/08/27 01:42:53;;;;;;;5.43;1.42;;;;;;;;;;5030830;28;20053;-50
2023/08/27 01:45:19;;;;;;;3.55;1.50;;;;;;;;;;5030650;28;20021;-55
2023/08/27 01:47:45;;;;;;;4.03;1.35;;;11.90;99.90;;;;;;5030463;28;20026;-52
2023/08/27 01:50:11;;;;;;;3.35;1.92;;;13.00;99.90;;;;;;5029422;28;20108;-47
2023/08/27 01:52:36;;;;;;;3.67;1.88;;;13.40;99.90;;;;;;5029245;28;20040;-51
2023/08/27 01:55:04;;;;;;;2.95;1.48;;;13.50;99.90;;;;;;5030368;28;20045;-51
2023/08/27 01:57:29;;;;;;;2.35;1.50;;;13.60;99.90;;;;;;5030553;28;20546;-55
2023/08/27 01:59:55;;;;;;;3.80;1.38;;;;;;;;;;5030124;28;20017;-54
2023/08/27 02:02:22;;;;;;;2.95;1.52;;;;;;;;;;5030748;28;20087;-53
2023/08/27 02:04:49;;;;;;;2.30;1.15;;;;;;;;;;5030422;28;20029;-51
2023/08/27 02:07:16;;;;;;;2.10;1.30;;;8.80;99.90;;;;;;5030410;28;20530;-53
2023/08/27 02:09:42;;;;;;;2.22;1.20;;;9.70;99.90;;;;;;5030468;28;20079;-56
2023/08/27 02:12:07;;;;;;;2.80;1.40;;;10.50;99.90;;;;;;5030381;28;20049;-51
2023/08/27 02:14:33;;;;;;;2.42;1.40;;;10.10;99.90;;;;;;5034749;28;20026;-52
2023/08/27 02:16:59;;;;;;;3.53;1.77;;;;;;;;;;5034047;28;20078;-51
2023/08/27 02:19:25;;;;;;;5.30;1.48;;;12.80;99.90;;;;;;5034447;28;20424;-55
2023/08/27 02:21:51;;;;;;;5.25;1.80;;;8.60;99.90;;;;;;5034325;28;20029;-53
2023/08/27 02:24:17;;;;;;;3.58;1.67;;;12.80;99.90;;;;;;5034420;28;20048;-53
2023/08/27 02:26:43;;;;;;;3.70;1.50;;;;;;;;;;5034226;28;20461;-47
2023/08/27 02:29:09;;;;;;;2.70;1.48;;;;;;;;;;5033853;28;20025;-52
2023/08/27 02:31:34;;;;;;;2.58;1.23;;;12.90;99.90;;;;;;5033631;28;20083;-53
2023/08/27 02:34:00;;;;;;;1.40;1.00;;;12.60;99.90;;;;;;5034153;28;20033;-54
2023/08/27 02:36:26;;;;;;;4.93;1.65;;;12.10;99.90;;;;;;5034061;28;20080;-53
2023/08/27 02:38:52;;;;;;;2.15;1.05;;;12.60;99.90;;;;;;5034055;28;20022;-55
2023/08/27 02:41:17;;;;;;;1.48;0.98;;;12.40;99.90;;;;;;5033760;28;20477;-48
2023/08/27 02:43:43;;;;;;;2.40;1.40;;;;;;;;;;5033949;28;20105;-52
2023/08/27 02:46:09;;;;;;;2.72;1.52;;;13.40;99.90;;;;;;5033660;28;20484;-51
2023/08/27 02:48:35;;;;;;;3.92;1.80;;;12.80;99.90;;;;;;5033898;28;20021;-51
2023/08/27 02:51:00;;;;;;;4.88;1.42;;;10.40;99.90;;;;;;5033490;28;20125;-53
2023/08/27 02:53:26;;;;;;;2.38;1.52;;;;;;;;;;5032522;28;20033;-51
2023/08/27 02:55:52;;;;;;;1.80;1.20;;;14.00;99.90;;;;;;5033722;28;20477;-51
2023/08/27 02:58:18;;;;;;;2.53;1.30;;;;;;;;;;5033558;28;20021;-50
2023/08/27 03:00:43;;;;;;;3.63;1.88;;;12.10;99.90;;;;;;5033510;28;20500;-55
2023/08/27 03:03:09;;;;;;;2.72;1.40;;;12.40;99.90;;;;;;5033351;28;20021;-53
2023/08/27 03:05:34;;;;;;;3.83;1.77;;;12.50;99.90;;;;;;5033454;28;20369;-50
2023/08/27 03:08:00;;;;;;;4.97;1.67;;;9.00;99.90;;;;;;5033401;28;20496;-53
2023/08/27 03:10:26;;;;;;;3.15;1.50;;;;;;;;;;5033472;28;20026;-47
2023/08/27 03:12:52;;;;;;;3.50;1.38;;;13.60;99.90;;;;;;5033196;28;20049;-50
2023/08/27 03:15:18;;;;;;;3.30;1.38;;;;;;;;;;5033035;28;20046;-49
2023/08/27 03:17:43;;;;;;;3.88;1.70;;;8.00;99.90;;;;;;5033270;28;20112;-55
2023/08/27 03:20:10;;;;;;;3.97;1.50;;;;;;;;;;5033091;28;20029;-47
2023/08/27 03:22:36;;;;;;;2.47;1.50;;;;;;;;;;5033108;28;20087;-52
2023/08/27 03:25:02;;;;;;;3.10;1.75;;;;;;;;;;5048466;28;20033;-50
2023/08/27 03:27:29;;;;;;;3.10;1.52;;;10.10;99.90;;;;;;5033112;28;20029;-51
2023/08/27 03:29:54;;;;;;;2.95;1.52;;;10.40;99.90;;;;;;5032896;28;20032;-53
2023/08/27 03:32:20;;;;;;;3.13;1.50;;;;;;;;;;5032978;28;20025;-56
2023/08/27 03:34:46;;;;;;;2.47;1.40;;;8.00;99.90;;;;;;5032916;28;20395;-55
2023/08/27 03:37:12;;;;;;;3.05;1.73;;;;;;;;;;5048209;28;20168;-51
2023/08/27 03:39:37;;;;;;;3.80;2.05;;;13.20;99.90;;;;;;5032738;28;20048;-52
2023/08/27 03:42:04;;;;;;;2.35;1.33;;;;;;;;;;5032013;28;20029;-49
2023/08/27 03:44:29;;;;;;;3.83;1.73;;;12.30;99.90;;;;;;5035215;28;20025;-47
2023/08/27 03:46:55;;;;;;;3.63;1.70;;;;;;;;;;5035861;28;20111;-49
2023/08/27 03:49:21;;;;;;;5.35;1.67;;;7.90;99.90;;;;;;5036358;28;20087;-48
2023/08/27 03:51:46;;;;;;;4.10;1.90;;;12.30;99.90;;;;;;5033840;28;20033;-51
2023/08/27 03:54:12;;;;;;;2.80;1.48;;;12.40;99.90;;;;;;5032553;28;20021;-48
2023/08/27 03:56:37;;;;;;;2.92;1.77;;;9.80;99.90;;;;;;5030956;28;20029;-47
2023/08/27 03:59:03;;;;;;;5.85;1.75;;;12.40;99.90;;;;;;5014428;28;20029;-55
2023/08/27 04:01:30;;;;;;;3.20;1.67;;;;;;;;;;5032278;28;20025;-53
2023/08/27 04:03:56;;;;;;;4.47;1.77;;;;;;;;;;5032311;28;20028;-49
2023/08/27 04:06:22;;;;;;;5.30;1.70;;;;;;;;;;5032252;28;20104;-55
2023/08/27 04:08:48;;;;;;;3.95;1.70;;;11.70;99.90;;;;;;5032340;28;20029;-54
2023/08/27 04:11:15;;;;;;;2.50;1.35;;;11.20;99.90;;;;;;5032164;28;20029;-47
2023/08/27 04:13:41;;;;;;;3.08;1.58;;;12.40;99.90;;;;;;5031923;28;20053;-52
2023/08/27 04:16:08;;;;;;;4.20;1.50;;;12.30;99.90;;;;;;5031886;28;20029;-50
2023/08/27 04:18:34;;;;;;;4.80;1.67;;;;;;;;;;5031880;28;20037;-50
2023/08/27 04:21:01;;;;;;;2.42;1.60;;;12.60;99.90;;;;;;5032068;28;20030;-50
2023/08/27 04:23:27;;;;;;;3.30;1.60;;;12.50;99.90;;;;;;5031907;28;20151;-51
2023/08/27 04:25:53;;;;;;;3.13;1.60;;;11.80;99.90;;;;;;5032096;28;20029;-47
2023/08/27 04:28:19;;;;;;;3.08;1.38;;;;;;;;;;5032116;28;20366;-50
2023/08/27 04:30:49;;;;;;;2.83;1.55;;;11.80;99.90;;;;;;5031390;28;20547;-51
2023/08/27 04:33:15;;;;;;;2.90;1.55;;;11.20;99.90;;;;;;5031783;28;20467;-48
2023/08/27 04:35:42;;;;;;;3.92;1.60;;;;;;;;;;5031050;28;20034;-49
2023/08/27 04:38:08;;;;;;;3.13;1.65;;;;;;;;;;5031812;28;20028;-52
2023/08/27 04:40:34;;;;;;;4.55;1.80;;;12.80;99.90;;;;;;5031292;28;20025;-51
2023/08/27 04:43:00;;;;;;;3.53;1.92;;;11.00;99.90;;;;;;5031309;28;20087;-57
2023/08/27 04:45:26;;;;;;;2.97;1.75;;;;;;;;;;5031165;28;20082;-49
2023/08/27 04:47:52;;;;;;;4.10;1.63;;;9.90;99.90;;;;;;5031309;28;20029;-51
2023/08/27 04:50:18;;;;;;;4.07;1.85;;;;;;;;;;5031192;28;20025;-57
2023/08/27 04:52:44;;;;;;;3.50;1.70;;;;;;;;;;5031666;28;20034;-55
2023/08/27 04:55:10;;;;;;;3.88;1.75;;;12.10;99.90;;;;;;5031241;28;20038;-49
2023/08/27 04:57:37;;;;;;;3.45;1.60;;;11.30;99.90;;;;;;5031299;28;20119;-56
2023/08/27 05:00:04;;;;;;;3.80;1.50;;;12.80;99.90;;;;;;5029812;28;20044;-51
2023/08/27 05:02:30;;;;;;;2.80;1.60;;;11.60;99.90;;;;;;5031511;28;20384;-52
2023/08/27 05:04:56;;;;;;;2.72;1.50;;;;;;;;;;5031096;28;20025;-53
2023/08/27 05:07:21;;;;;;;2.92;1.58;;;11.70;99.90;;;;;;5031383;28;20040;-55
2023/08/27 05:09:47;;;;;;;2.63;1.48;;;12.70;99.90;;;;;;5029953;28;20611;-53
2023/08/27 05:12:13;;;;;;;3.53;1.73;;;12.30;99.90;;;;;;5031193;28;20056;-51
2023/08/27 05:14:39;;;;;;;2.30;1.02;;;;;;;;;;5030862;28;20025;-48
2023/08/27 05:17:05;;;;;;;2.28;1.27;;;;;;;;;;5031155;28;20477;-50
2023/08/27 05:19:30;;;;;;;2.33;1.38;;;11.90;99.90;;;;;;5031266;28;20025;-54
2023/08/27 05:21:56;;;;;;;1.88;1.27;;;8.90;99.90;;;;;;5030978;28;20128;-51
2023/08/27 05:24:21;;;;;;;1.80;1.15;;;11.50;99.90;;;;;;5031132;28;20032;-58
2023/08/27 05:26:47;;;;;;;3.63;1.50;;;12.30;99.90;;;;;;5030942;28;20404;-58
2023/08/27 05:29:13;;;;;;;2.67;1.45;;;12.20;99.90;;;;;;5030998;28;20045;-51
2023/08/27 05:31:39;;;;;;;2.38;1.30;;;;;;;;;;5031005;28;20583;-54
2023/08/27 05:34:04;;;;;;;2.83;1.48;;;10.90;99.90;;;;;;5030937;28;20021;-57
2023/08/27 05:36:30;;;;;;;2.88;1.58;;;12.10;99.90;;;;;;5030819;28;20037;-53
2023/08/27 05:38:58;;;;;;;2.67;1.25;;;10.10;99.90;;;;;;5030880;28;20024;-51
2023/08/27 05:41:24;;;;;;;3.08;1.40;;;;;;;;;;5030773;28;20036;-52
2023/08/27 05:43:49;;;;;;;2.72;1.55;;;11.60;99.90;;;;;;5030738;28;20025;-54
2023/08/27 05:46:15;;;;;;;4.03;1.23;;;;;;;;;;5029905;28;20497;-49
2023/08/27 05:48:41;;;;;;;3.35;1.35;;;12.20;99.90;;;;;;5030617;28;20021;-55
2023/08/27 05:51:07;;;;;;;2.85;1.27;;;;;;;;;;5030677;28;20028;-49
2023/08/27 05:53:33;;;;;;;3.20;1.35;;;12.00;99.90;;;;;;5030843;28;20105;-57
2023/08/27 05:55:58;;;;;;;2.67;1.40;;;8.50;99.90;;;;;;5030495;28;20021;-50
2023/08/27 05:58:24;;;;;;;2.60;1.48;;;12.30;99.90;;;;;;5030555;28;20033;-52
2023/08/27 06:00:53;;;;;;;4.43;1.52;;;11.30;99.90;;;;;;5030386;28;20057;-48
2023/08/27 06:03:20;;;;;;;2.70;1.52;;;11.80;99.90;;;;;;5030494;28;20137;-51
2023/08/27 06:05:45;;;;;;;3.28;1.73;;;12.20;99.90;;;;;;5030295;28;20096;-50
2023/08/27 06:08:11;;;;;;;4.07;1.60;;;12.20;99.90;;;;;;5030301;28;20407;-51
2023/08/27 06:10:37;;;;;;;2.53;1.40;;;;;;;;;;5030179;28;20053;-53
2023/08/27 06:13:03;;;;;;;3.20;1.63;;;11.30;99.90;;;;;;5030033;28;20509;-55
2023/08/27 06:15:30;;;;;;;2.45;1.48;;;11.30;99.90;;;;;;5030404;28;20064;-50
2023/08/27 06:18:00;;;;;;;2.55;1.25;;;13.20;99.90;;;;;;5030066;28;20077;-51
2023/08/27 06:20:26;;;;;;;3.42;1.75;;;13.80;99.90;;;;;;5029926;28;20531;-52
2023/08/27 06:22:51;;;;;;;2.67;1.52;;;12.90;99.90;;;;;;5030351;28;20029;-49
2023/08/27 06:25:17;;;;;;;1.92;1.25;;;12.80;99.90;;;;;;5030182;28;20025;-51
2023/08/27 06:27:43;;;;;;;2.20;1.25;;;;;;;;;;5030190;28;20568;-53
2023/08/27 06:30:09;;;;;;;2.50;1.20;;;13.20;99.90;;;;;;5030033;28;20098;-51
2023/08/27 06:32:34;;;;;;;3.83;1.33;;;13.60;99.90;;;;;;5030521;28;20116;-51
2023/08/27 06:35:00;;;;;;;3.00;1.38;;;13.20;99.90;;;;;;5030007;28;20025;-51
2023/08/27 06:37:26;;;;;;;1.88;1.13;;;;;;;;;;5029774;28;20500;-49
2023/08/27 06:39:51;;;;;;;2.63;1.45;;;14.00;99.90;;;;;;5030203;28;20034;-50
2023/08/27 06:42:17;;;;;;;3.72;1.40;;;14.00;99.90;;;;;;5029950;28;20030;-58
2023/08/27 06:44:43;;;;;;;2.17;1.30;;;16.30;99.90;;;;;;5030276;28;20159;-50
2023/08/27 06:47:09;;;;;;;2.35;1.20;;;15.60;99.90;;;;;;5029682;28;20481;-51
2023/08/27 06:49:34;;;;;;;1.60;1.00;;;15.80;99.90;;;;;;5030245;28;20024;-51
2023/08/27 06:52:00;;;;;;;1.77;1.00;;;15.40;99.90;;;;;;5029907;28;20048;-54
2023/08/27 06:54:26;;;;;;;2.38;1.15;;;12.30;99.90;;;;;;5029934;28;20108;-48
2023/08/27 06:56:51;;;;;;;1.98;0.95;;;11.60;99.90;;;;;;5029783;28;20034;-49
2023/08/27 06:59:17;;;;;;;3.15;1.42;;;15.00;99.90;;;;;;5032906;28;20026;-53
2023/08/27 07:01:43;;;;;;;2.28;1.08;;;15.10;99.90;;;;;;5033374;28;20025;-53
2023/08/27 07:04:08;;;;;;;3.00;1.17;;;16.60;99.90;;;;;;5032354;28;20021;-57
2023/08/27 07:06:34;;;;;;;1.95;1.10;;;15.90;99.90;;;;;;5033338;28;20063;-49
2023/08/27 07:09:01;;;;;;;3.38;1.42;;;12.40;99.90;;;;;;5033597;28;20547;-54
2023/08/27 07:11:26;;;;;;;2.17;1.05;;;16.40;99.90;;;;;;5032625;28;20029;-53
2023/08/27 07:13:53;;;;;;;1.60;1.00;;;16.70;99.90;;;;;;5032848;28;20103;-55
2023/08/27 07:16:19;;;;;;;2.67;1.23;;;17.10;99.90;;;;;;5033267;28;20051;-55
2023/08/27 07:18:46;;;;;;;2.10;0.90;;;18.50;99.90;;;;;;5032851;28;20133;-48
2023/08/27 07:21:12;;;;;;;4.22;1.00;;;18.70;99.90;;;;;;5032749;28;20039;-53
2023/08/27 07:23:37;;;;;;;1.50;0.82;;;19.10;99.90;;;;;;5032929;28;20104;-53
2023/08/27 07:26:03;;;;;;;2.60;1.02;;;18.30;99.90;;;;;;5032748;28;20021;-51
2023/08/27 07:28:30;;;;;;;1.77;0.93;;;19.20;99.90;;;;;;5031689;28;20022;-52
2023/08/27 07:30:55;;;;;;;3.30;0.93;;;20.00;99.90;;;;;;5033064;28;20026;-56
2023/08/27 07:33:21;;;;;;;1.60;0.75;;;15.80;99.90;;;;;;5032906;28;20035;-55
2023/08/27 07:35:48;;;;;;;2.40;0.85;;;;;;;;;;5032679;28;20017;-49
2023/08/27 07:38:14;;;;;;;2.08;1.10;;;17.00;99.90;;;;;;5030741;28;20040;-54
2023/08/27 07:40:40;;;;;;;2.83;0.82;;;21.30;99.90;;;;;;5030927;28;20013;-48
2023/08/27 07:43:06;;;;;;;1.20;0.90;;;18.10;99.90;;;;;;5030926;28;20030;-54
2023/08/27 07:45:32;;;;;;;1.92;0.82;;;21.40;99.90;;;;;;5030632;28;20039;-51
2023/08/27 07:47:58;;;;;;;1.70;1.17;;;21.40;99.90;;;;;;5030708;28;20040;-52
2023/08/27 07:50:25;;;;;;;1.00;0.60;;;21.90;99.90;;;;;;5030770;28;20478;-55
2023/08/27 07:52:51;;;;;;;2.70;0.70;;;18.70;99.90;;;;;;5032342;28;20443;-53
2023/08/27 07:55:17;;;;;;;1.13;0.70;;;21.80;99.90;;;;;;5032622;28;20017;-57
2023/08/27 07:57:42;;;;;;;1.20;0.55;;;22.70;99.90;;;;;;5031204;28;20072;-51
2023/08/27 08:00:08;;;;;;;2.10;0.68;;;21.90;99.90;;;;;;5032499;28;20385;-50
2023/08/27 08:02:34;;;;;;;4.15;0.85;;;22.30;99.90;;;;;;5032280;28;20143;-56
2023/08/27 08:05:01;;;;;;;1.00;0.68;;;19.10;99.90;;;;;;5032215;28;20083;-58
2023/08/27 08:07:27;;;;;;;2.50;0.90;;;23.00;99.90;;;;;;5032364;28;20060;-54
2023/08/27 08:09:52;;;;;;;4.88;0.70;;;18.70;99.90;;;;;;5031299;28;20057;-52
2023/08/27 08:12:19;;;;;;;1.17;0.70;;;23.10;99.90;;;;;;5032291;28;20041;-55
2023/08/27 08:14:45;;;;;;;2.67;0.73;;;22.70;99.90;;;;;;5032032;28;20029;-51
2023/08/27 08:17:12;;;;;;;2.53;0.95;;;;;;;;;;5032282;28;20397;-50
2023/08/27 08:19:38;;;;;;;0.88;0.50;;;;;;;;;;5030842;28;20061;-52
2023/08/27 08:22:04;;;;;;;0.90;0.60;;;23.40;99.90;;;;;;5031983;28;20021;-50
2023/08/27 08:24:30;;;;;;;0.60;0.60;;;;;;;;;;5032350;28;20519;-58
2023/08/27 08:26:56;;;;;;;1.52;0.75;;;;;;;;;;5032115;28;20108;-52
2023/08/27 08:29:22;;;;;;;0.80;0.60;;;25.10;99.90;;;;;;5032067;28;20469;-56
2023/08/27 08:31:48;;;;;;;2.10;0.60;;;25.30;99.90;;;;;;5031821;28;20040;-48
2023/08/27 08:34:14;;;;;;;2.20;0.65;;;24.90;99.90;;;;;;5032052;28;20025;-56
2023/08/27 08:36:40;;;;;;;2.95;0.82;;;24.40;99.90;;;;;;5030339;28;20037;-48
2023/08/27 08:39:05;;;;;;;0.60;0.60;;;23.40;99.90;;;;;;5031719;28;20032;-53
2023/08/27 08:41:36;;;;;;;1.23;0.50;;;22.40;99.90;;;;;;5031787;28;20045;-48
2023/08/27 08:44:16;;;;;;;1.33;0.60;;;20.70;99.90;;;;;;5031646;28;20376;-55
2023/08/27 08:46:44;;;;;;;0.80;0.47;;;24.90;99.90;;;;;;5031878;28;20117;-50
2023/08/27 08:49:14;;;;;;;0.70;0.32;;;23.70;99.90;;;;;;5031466;28;20057;-54
2023/08/27 08:51:41;;;;;;;1.05;0.57;;;25.20;99.90;;;;;;5031729;28;20029;-53
2023/08/27 08:54:10;;;;;;;0.60;0.47;;;21.40;99.90;;;;;;5031300;28;20028;-53
2023/08/27 08:56:39;;;;;;;0.68;0.50;;;25.50;99.90;;;;;;5031508;28;20408;-57
2023/08/27 08:59:06;;;;;;;2.05;0.52;;;25.60;99.90;;;;;;5031323;28;20395;-53
2023/08/27 09:01:32;;;;;;;1.67;0.43;;;24.60;99.90;;;;;;5031442;28;20030;-53
2023/08/27 09:03:59;;;;;;;1.05;0.55;;;25.10;99.90;;;;;;5031289;28;20445;-55
2023/08/27 09:06:26;;;;;;;0.40;0.40;;;25.40;99.90;;;;;;5031522;28;20087;-57
2023/08/27 09:08:52;;;;;;;1.38;0.52;;;25.00;99.90;;;;;;5031149;28;20025;-53
2023/08/27 09:11:19;;;;;;;0.60;0.40;;;25.10;99.90;;;;;;5031069;28;20108;-54
2023/08/27 09:13:45;;;;;;;1.50;0.40;;;24.70;99.90;;;;;;5031110;28;20045;-56
2023/08/27 09:16:11;;;;;;;0.77;0.40;;;25.60;99.90;;;;;;5031050;28;20318;-58
2023/08/27 09:18:37;;;;;;;1.90;0.50;;;;;;;;;;5031351;28;20033;-49
2023/08/27 09:21:05;;;;;;;0.35;0.32;;;26.90;99.90;;;;;;5031010;28;20598;-54
2023/08/27 09:23:33;;;;;;;1.17;0.55;;;27.30;99.90;;;;;;5030948;28;20510;-53
2023/08/27 09:26:02;;;;;;;1.23;0.40;;;24.70;99.90;;;;;;5031060;28;20013;-58
2023/08/27 09:28:28;;;;;;;0.90;0.50;;;24.90;99.90;;;;;;5030830;28;20033;-58
2023/08/27 09:30:54;;;;;;;0.50;0.32;;;26.20;99.90;;;;;;5030914;28;20018;-57
2023/08/27 09:33:20;;;;;;;0.45;0.35;;;25.90;99.90;;;;;;5031157;28;20025;-57
2023/08/27 09:35:46;;;;;;;1.08;0.30;;;26.50;99.90;;;;;;5030735;28;20104;-53
2023/08/27 09:38:14;;;;;;;1.17;0.30;;;25.40;99.90;;;;;;5030709;28;20049;-56
2023/08/27 09:40:40;;;;;;;1.05;0.47;;;26.20;99.90;;;;;;5030825;28;20017;-53
2023/08/27 09:43:10;;;;;;;0.90;0.63;;;25.70;99.90;;;;;;5030795;28;20033;-50
2023/08/27 09:45:37;;;;;;;1.38;0.50;;;25.50;99.90;;;;;;5030565;28;20109;-56
2023/08/27 09:48:04;;;;;;;0.30;0.28;;;26.30;99.90;;;;;;5030798;28;20025;-50
2023/08/27 09:50:31;;;;;;;1.55;0.47;;;26.70;99.90;;;;;;5030762;28;20079;-56
2023/08/27 09:53:06;;;;;;;0.75;0.50;;;26.00;99.90;;;;;;5030909;28;20072;-55
2023/08/27 09:55:33;;;;;;;0.30;0.30;;;25.50;99.90;;;;;;5030540;28;20028;-57
2023/08/27 09:57:59;;;;;;;0.38;0.38;;;26.10;99.90;;;;;;5030553;28;20384;-57
2023/08/27 10:00:27;;;;;;;0.25;0.25;;;26.00;99.90;;;;;;5030597;28;20033;-59
2023/08/27 10:02:53;;;;;;;1.00;0.30;;;26.20;99.90;;;;;;5030486;28;20025;-55
2023/08/27 10:05:27;;;;;;;1.10;0.47;;;25.40;99.90;;;;;;5030553;28;20075;-57
2023/08/27 10:08:03;;;;;;;0.60;0.40;;;25.50;99.80;;;;;;5030651;28;20388;-56
2023/08/27 10:10:31;;;;;;;1.20;0.40;;;;;;;;;;5030502;28;20021;-56
2023/08/27 10:12:58;;;;;;;0.57;0.40;;;21.70;99.70;;;;;;5030223;28;20497;-58
2023/08/27 10:15:24;;;;;;;1.13;0.50;;;;;;;;;;5030486;28;20550;-49
2023/08/27 10:17:52;;;;;;;0.60;0.40;;;25.50;99.90;;;;;;5030427;28;20029;-54
2023/08/27 10:20:18;;;;;;;1.58;0.50;;;21.30;99.90;;;;;;5030333;28;20017;-53
2023/08/27 10:22:46;;;;;;;1.00;0.40;;;21.00;99.90;;;;;;5030529;28;20113;-58
2023/08/27 10:25:15;;;;;;;0.55;0.30;;;25.00;99.90;;;;;;5030073;28;20462;-55
2023/08/27 10:27:41;;;;;;;0.38;0.30;;;25.50;99.90;;;;;;5030460;28;20022;-53
2023/08/27 10:30:07;;;;;;;0.85;0.40;;;;;;;;;;5030003;28;20100;-53
2023/08/27 10:32:33;;;;;;;0.40;0.30;;;23.20;99.80;;;;;;5030644;28;20083;-55
2023/08/27 10:35:00;;;;;;;1.23;0.57;;;24.50;99.90;;;;;;5034330;28;20021;-56
2023/08/27 10:37:28;;;;;;;0.40;0.40;;;26.10;99.90;;;;;;5033863;28;20033;-54
2023/08/27 10:39:57;;;;;;;0.43;0.30;;;25.30;99.90;;;;;;5034497;28;20053;-55
2023/08/27 10:42:29;;;;;;;;;;;25.10;99.90;;;;;;5034301;28;20029;-51
2023/08/27 10:45:21;;;;;;;0.40;0.30;;;25.60;99.90;;;;;;5034111;28;19905;-55
2023/08/27 10:48:11;;;;;;;0.65;0.40;;;28.20;99.90;;;;;;5020871;28;20465;-57
2023/08/27 10:50:50;;;;;;;0.60;0.50;;;26.80;99.10;;;;;;5033729;28;20033;-54
2023/08/27 10:53:17;;;;;;;0.43;0.43;;;26.60;97.70;;;;;;5033865;28;20060;-55
2023/08/27 10:55:48;;;;;;;0.47;0.40;;;26.40;97.40;;;;;;5033767;28;20029;-56
2023/08/27 10:58:15;;;;;;;0.40;0.30;;;26.40;97.70;;;;;;5033714;28;20044;-51
2023/08/27 11:01:02;;;;;;;0.38;0.35;;;25.90;99.30;;;;;;5031900;28;20461;-56
2023/08/27 11:03:48;;;;;;;1.48;0.50;;;27.60;99.90;;;;;;5033700;28;20058;-56
2023/08/27 11:06:13;;;;;;;2.67;0.57;;;25.20;98.20;;;;;;5033422;28;20029;-55
2023/08/27 11:08:42;;;;;;;1.02;0.52;;;25.60;98.70;;;;;;5034662;28;20473;-56
2023/08/27 11:11:12;;;;;;;1.08;0.57;;;25.00;97.90;;;;;;5035259;28;20032;-54
2023/08/27 11:13:39;;;;;;;0.50;0.30;;;25.10;98.40;;;;;;5034321;28;20132;-51
2023/08/27 11:16:15;;;;;;;0.77;0.40;;;25.80;98.50;;;;;;5035037;28;20370;-53
2023/08/27 11:18:58;;;;;;;0.82;0.45;;;25.90;98.20;;;;;;5034785;28;20025;-55
2023/08/27 11:21:24;;;;;;;0.30;0.30;;;25.80;99.20;;;;;;5033258;28;20017;-55
2023/08/27 11:24:12;;;;;;;0.60;0.50;;;25.10;99.40;;;;;;5033041;28;20377;-57
2023/08/27 11:26:39;;;;;;;0.47;0.47;;;24.30;99.30;;;;;;5032584;28;20048;-53
2023/08/27 11:29:08;;;;;;;0.47;0.47;;;24.50;99.90;;;;;;5033156;28;20021;-54
2023/08/27 11:31:34;;;;;;;0.30;0.30;;;23.00;99.30;;;;;;5033274;28;20424;-55
2023/08/27 11:34:02;;;;;;;1.38;0.40;;;24.60;99.90;;;;;;5032848;28;20516;-53
2023/08/27 11:36:29;;;;;;;1.80;0.60;;;21.00;99.90;;;;;;5032907;28;20034;-56
2023/08/27 11:38:58;;;;;;;1.90;0.70;;;23.80;99.90;;;;;;5030846;28;20075;-55
2023/08/27 11:41:24;;;;;;;0.50;0.50;;;22.20;99.90;;;;;;5032908;28;20025;-51
2023/08/27 11:43:53;;;;;;;0.90;0.60;;;24.80;99.90;;;;;;5032719;28;20033;-54
2023/08/27 11:46:22;;;;;;;1.02;0.35;;;25.40;99.00;;;;;;5032588;28;20029;-54
2023/08/27 11:48:48;;;;;;;0.98;0.65;;;25.50;99.60;;;;;;5032480;28;20061;-55
2023/08/27 11:51:17;;;;;;;1.15;0.65;;;25.40;97.40;;;;;;5032923;28;20107;-50
2023/08/27 11:53:44;;;;;;;0.63;0.40;;;25.30;98.80;;;;;;5031283;28;20079;-54
2023/08/27 11:56:11;;;;;;;2.33;0.70;;;26.10;97.90;;;;;;5032512;28;20028;-53
2023/08/27 11:58:39;;;;;;;1.73;0.47;;;22.70;98.40;;;;;;5032432;28;20022;-58
2023/08/27 12:01:06;;;;;;;1.50;0.70;;;25.60;98.30;;;;;;5032081;28;20287;-55
2023/08/27 12:03:33;;;;;;;1.15;0.50;;;25.70;97.60;;;;;;5032570;28;20026;-56
2023/08/27 12:05:59;;;;;;;1.48;0.50;;;;;;;;;;5032529;28;20025;-50
2023/08/27 12:08:24;;;;;;;2.00;0.57;;;23.10;98.30;;;;;;5032329;28;20064;-53
2023/08/27 12:10:51;;;;;;;1.60;0.70;;;24.20;99.20;;;;;;5032249;28;20017;-57
2023/08/27 12:13:16;;;;;;;2.55;1.05;;;22.30;99.50;;;;;;5032043;28;20172;-56
2023/08/27 12:15:43;;;;;;;1.08;0.50;;;23.90;99.90;;;;;;5032511;28;20053;-54
2023/08/27 12:18:09;;;;;;;1.45;0.60;;;19.50;99.90;;;;;;5031640;28;20045;-54
2023/08/27 12:20:36;;;;;;;0.95;0.50;;;22.70;99.90;;;;;;5032189;28;20075;-56
2023/08/27 12:23:12;;;;;;;1.10;0.50;;;23.90;99.90;;;;;;5032160;28;20032;-54
2023/08/27 12:25:48;;;;;;;1.30;0.65;;;22.50;99.90;;;;;;5032064;28;20071;-52
2023/08/27 12:28:16;;;;;;;1.80;0.50;;;20.50;99.90;;;;;;5032054;28;20542;-53
2023/08/27 12:30:59;;;;;;;2.70;0.98;;;23.20;99.90;;;;;;5030118;28;20030;-46
2023/08/27 12:33:39;;;;;;;1.13;0.70;;;23.40;99.90;;;;;;5031482;28;20101;-54
2023/08/27 12:36:06;;;;;;;2.03;0.73;;;20.00;99.90;;;;;;5031846;28;20033;-48
2023/08/27 12:38:32;;;;;;;1.55;0.50;;;23.70;99.90;;;;;;5031675;28;20029;-52
2023/08/27 12:40:58;;;;;;;1.30;0.60;;;22.00;99.90;;;;;;5031808;28;20358;-52
2023/08/27 12:43:24;;;;;;;0.75;0.43;;;;;;;;;;5031375;28;20087;-49
2023/08/27 12:45:50;;;;;;;1.08;0.50;;;;;;;;;;5031179;28;20412;-51
2023/08/27 12:48:16;;;;;;;1.67;0.40;;;23.60;99.90;;;;;;5031598;28;20033;-47
2023/08/27 12:50:42;;;;;;;1.85;0.45;;;24.70;99.90;;;;;;5031284;28;20037;-47
2023/08/27 12:53:07;;;;;;;0.55;0.50;;;24.40;99.90;;;;;;5030260;28;20049;-46
2023/08/27 12:55:33;;;;;;;1.70;0.75;;;24.60;99.90;;;;;;5031060;28;20040;-55
2023/08/27 12:57:58;;;;;;;1.10;0.40;;;25.20;98.90;;;;;;5030135;28;20477;-55
2023/08/27 13:00:24;;;;;;;1.67;0.50;;;24.50;98.60;;;;;;5030045;28;20063;-54
2023/08/27 13:02:49;;;;;;;1.27;0.45;;;25.00;97.80;;;;;;5030978;28;20044;-55
2023/08/27 13:05:15;;;;;;;3.75;0.65;;;24.70;99.60;;;;;;5031571;28;20559;-50
2023/08/27 13:07:41;;;;;;;1.10;0.60;;;24.90;99.20;;;;;;5031404;28;20033;-54